Afton, WY

11:11 PM MDT on October 25, 2014 (GMT -0600)
LCWY Branch Office | Change Station
CLOSE
Current Station
Personal Weather Station
Location: Afton, WY
Elevation: 6270 ft
Nearby Weather Stations

Elev 6270 ft 42.72 °N, 110.93 °W | Updated 4 minutes ago

Scattered Clouds
Scattered Clouds
49.2 °F
Feels Like 49 °F
N
1.0
Wind Variable Wind from WNW
Gusts 4.0 mph

Today
High -- | Low -- °F
--% Chance of Precip.
Yesterday
High -- | Low -- °F
Precip. -- in
7:49 AM 6:25 PM
Waxing Crescent, 6% visible
Pressure 29.91 in
Visibility 10.0 miles
Clouds Scattered Clouds 8500 ft
Windchill 49 °F
Dew Point 34 °F
Humidity 56%
Rainfall 0.00 in
Snow Depth 2 in , 0 in , 0 in
UV 0 out of 12
Pollen 3.20 out of 12
Air Quality Not available.
Flu Activity Sporadic
METAR KAFO 260455Z AUTO 21007KT 10SM SCT085 07/00 A2991 RMK AO2

More Conditions Fewer Conditions

Pressure 29.91 in
Visibility 10.0 miles
Clouds Scattered Clouds 8500 ft
Windchill 49 °F
Dew Point 34 °F
Humidity 56%
Rainfall 0.00 in
Snow Depth 2 in , 0 in , 0 in
UV 0 out of 12
Pollen 3.20 out of 12
Air Quality Not available.
Flu Activity Sporadic
METAR KAFO 260455Z AUTO 21007KT 10SM SCT085 07/00 A2991 RMK AO2

More Conditions Fewer Conditions

10-Day Weather Forecast

Almanac

Astronomy

Oct. 25, 2014 Rise Set
Actual Time 7:49 AM MDT 6:25 PM MDT
Civil Twilight 7:20 AM MDT 6:54 PM MDT
Nautical Twilight 6:47 AM MDT 7:27 PM MDT
Astronomical Twilight 6:14 AM MDT 8:00 PM MDT
Moon 9:33 AM MDT (10/25) 7:49 PM MDT (10/25)
Length of Visible Light 11h 34m
Length of Day
10h 36m
Tomorrow will be 2m 39s shorter.
Waxing Crescent, 6% of the Moon is Illuminated
Oct 26
Waxing Crescent
Oct 30
First Quarter
Nov 6
Full
Nov 14
Last Quarter
Nov 22
New

Yesterday's Extremes

State Highs State Lows

Community

WunderPhotos

Upload Photos

1,765,111 photos uploaded!

Nearby

Snow Depth

Station Depth Elevation
Willow Creek 2 in 8450 ft
Salt River Summit 0 in 7600 ft
Spring Creek Divide 0 in 9000 ft
Blind Bull Summit 0 in 8900 ft
Kelley R.S. 0 in 8180 ft

Earthquake Activity

City Distance Mag. Time & Date
No recent earthquake activity has been reported nearby.
Minimum magnitude displayed is 2.5.

Coastal Water Temperatures

Place Temperature
No Stations Reporting

Nearby Weather Stations